createdAt,value
2019-03-12T00:02:15.473Z,2.67
2019-03-12T00:04:42.408Z,2.63
2019-03-12T00:07:09.362Z,2.43
2019-03-12T00:09:36.324Z,1.90
2019-03-12T00:12:03.385Z,3.00
2019-03-12T00:14:30.285Z,2.83
2019-03-12T00:16:57.233Z,2.20
2019-03-12T00:19:24.262Z,2.90
2019-03-12T00:21:51.225Z,2.70
2019-03-12T00:24:18.153Z,2.10
2019-03-12T00:26:45.151Z,1.77
2019-03-12T00:29:12.061Z,2.93
2019-03-12T00:31:39.007Z,2.33
2019-03-12T00:34:06.018Z,2.23
2019-03-12T00:36:32.964Z,2.37
2019-03-12T00:38:59.899Z,2.67
2019-03-12T00:41:26.897Z,2.43
2019-03-12T00:43:53.827Z,2.00
2019-03-12T00:46:20.866Z,2.50
2019-03-12T00:48:47.825Z,2.60
2019-03-12T00:51:14.775Z,2.60
2019-03-12T00:53:41.737Z,2.40
2019-03-12T00:56:08.730Z,1.83
2019-03-12T00:58:35.647Z,2.40
2019-03-12T01:01:02.733Z,2.10
2019-03-12T01:03:29.640Z,2.60
2019-03-12T01:05:56.921Z,1.90
2019-03-12T01:08:23.876Z,2.17
2019-03-12T01:10:50.798Z,2.50
2019-03-12T01:13:17.822Z,2.37
2019-03-12T01:15:44.851Z,2.63
2019-03-12T01:18:13.806Z,2.37
2019-03-12T01:20:40.627Z,3.10
2019-03-12T01:23:07.650Z,2.27
2019-03-12T01:25:34.578Z,2.53
2019-03-12T01:28:01.547Z,1.77
2019-03-12T01:30:28.523Z,2.43
2019-03-12T01:32:55.514Z,2.53
2019-03-12T01:35:22.438Z,2.43
2019-03-12T01:37:49.385Z,2.40
2019-03-12T01:40:16.393Z,2.80
2019-03-12T01:42:43.383Z,4.90
2019-03-12T01:45:11.738Z,3.00
2019-03-12T01:47:38.720Z,1.83
2019-03-12T01:50:06.253Z,2.20
2019-03-12T01:52:33.218Z,2.60
2019-03-12T01:55:00.490Z,2.20
2019-03-12T01:57:27.448Z,1.53
2019-03-12T01:59:54.359Z,2.60
2019-03-12T02:02:21.299Z,2.50
2019-03-12T02:04:48.200Z,3.13
2019-03-12T02:07:15.145Z,2.40
2019-03-12T02:09:42.070Z,2.50
2019-03-12T02:12:09.012Z,2.47
2019-03-12T02:14:36.780Z,3.77
2019-03-12T02:17:03.755Z,2.23
2019-03-12T02:19:30.667Z,2.60
2019-03-12T02:21:57.591Z,3.80
2019-03-12T02:24:24.531Z,2.70
2019-03-12T02:26:51.439Z,2.27
2019-03-12T02:29:18.393Z,2.90
2019-03-12T02:31:45.316Z,3.03
2019-03-12T02:34:12.269Z,3.40
2019-03-12T02:36:39.169Z,2.43
2019-03-12T02:39:07.354Z,2.80
2019-03-12T02:41:34.294Z,3.13
2019-03-12T02:44:01.246Z,2.93
2019-03-12T02:46:28.197Z,4.60
2019-03-12T02:48:55.144Z,4.53
2019-03-12T02:51:22.062Z,3.07
2019-03-12T02:53:48.999Z,3.43
2019-03-12T02:56:15.957Z,3.30
2019-03-12T02:58:42.893Z,3.70
2019-03-12T03:01:09.804Z,3.63
2019-03-12T03:03:36.745Z,4.43
2019-03-12T03:06:11.079Z,5.20
2019-03-12T03:08:38.012Z,5.90
2019-03-12T03:11:04.911Z,5.50
2019-03-12T03:13:31.862Z,6.87
2019-03-12T03:15:58.800Z,7.00
2019-03-12T03:18:25.757Z,7.17
2019-03-12T03:20:52.684Z,7.40
2019-03-12T03:23:19.623Z,6.20
2019-03-12T03:25:46.526Z,6.17
2019-03-12T03:28:13.476Z,7.50
2019-03-12T03:30:40.393Z,7.67
2019-03-12T03:33:07.339Z,7.03
2019-03-12T03:35:34.257Z,7.07
2019-03-12T03:38:01.205Z,7.30
2019-03-12T03:40:28.142Z,8.50
2019-03-12T03:42:55.073Z,8.80
2019-03-12T03:45:21.996Z,8.20
2019-03-12T03:47:48.909Z,8.50
2019-03-12T03:50:16.059Z,8.43
2019-03-12T03:52:42.970Z,8.93
2019-03-12T03:55:11.977Z,7.53
2019-03-12T03:57:38.901Z,9.50
2019-03-12T04:00:08.335Z,8.13
2019-03-12T04:02:35.257Z,9.73
2019-03-12T04:05:02.356Z,8.80
2019-03-12T04:07:29.304Z,9.10
2019-03-12T04:09:56.230Z,10.33
2019-03-12T04:12:23.194Z,9.40
2019-03-12T04:14:50.169Z,9.87
2019-03-12T04:17:17.095Z,11.70
2019-03-12T04:19:44.045Z,10.53
2019-03-12T04:22:10.999Z,9.23
2019-03-12T04:24:37.972Z,10.00
2019-03-12T04:27:04.916Z,11.37
2019-03-12T04:29:31.882Z,10.93
2019-03-12T04:31:58.793Z,11.73
2019-03-12T04:34:37.465Z,9.60
2019-03-12T04:37:04.377Z,10.90
2019-03-12T04:39:31.379Z,11.40
2019-03-12T04:41:58.351Z,10.97
2019-03-12T04:44:25.308Z,10.33
2019-03-12T04:46:52.254Z,9.30
2019-03-12T04:49:19.219Z,11.30
2019-03-12T04:51:46.118Z,10.37
2019-03-12T04:54:13.072Z,10.43
2019-03-12T04:56:40.093Z,11.37
2019-03-12T04:59:07.076Z,9.87
2019-03-12T05:01:33.990Z,8.93
2019-03-12T05:04:00.959Z,9.73
2019-03-12T05:06:27.883Z,9.77
2019-03-12T05:08:54.853Z,9.13
2019-03-12T05:11:21.751Z,9.37
2019-03-12T05:14:18.108Z,7.83
2019-03-12T05:16:45.034Z,8.43
2019-03-12T05:19:12.010Z,9.70
2019-03-12T05:21:38.930Z,8.67
2019-03-12T05:24:05.875Z,8.40
2019-03-12T05:26:32.792Z,8.50
2019-03-12T05:28:59.737Z,9.80
2019-03-12T05:31:26.680Z,9.07
2019-03-12T05:33:53.593Z,7.50
2019-03-12T05:36:20.535Z,9.50
2019-03-12T05:38:47.450Z,8.33
2019-03-12T05:41:14.472Z,7.60
2019-03-12T05:43:41.412Z,7.70
2019-03-12T05:46:08.387Z,7.90
2019-03-12T05:48:35.304Z,7.77
2019-03-12T05:51:02.315Z,7.60
2019-03-12T05:53:48.070Z,8.10
2019-03-12T05:56:15.151Z,7.13
2019-03-12T05:58:42.065Z,7.80
2019-03-12T06:01:09.227Z,8.17
2019-03-12T06:03:36.188Z,7.83
2019-03-12T06:06:03.109Z,8.17
2019-03-12T06:08:30.085Z,8.00
2019-03-12T06:10:57.141Z,8.47
2019-03-12T06:13:24.115Z,9.47
2019-03-12T06:16:01.909Z,9.70
2019-03-12T06:18:45.860Z,8.13
2019-03-12T06:21:13.316Z,9.17
2019-03-12T06:23:40.234Z,9.27
2019-03-12T06:26:07.195Z,9.47
2019-03-12T06:28:34.141Z,8.67
2019-03-12T06:31:16.171Z,8.73
2019-03-12T06:34:05.254Z,9.37
2019-03-12T06:36:36.525Z,10.47
2019-03-12T06:39:19.370Z,8.50
2019-03-12T06:41:53.954Z,9.37
2019-03-12T06:44:32.278Z,9.73
2019-03-12T06:47:10.055Z,9.23
2019-03-12T06:49:54.130Z,9.30
2019-03-12T06:52:40.726Z,9.57
2019-03-12T06:55:23.230Z,9.70
2019-03-12T06:58:34.214Z,9.17
2019-03-12T07:01:20.821Z,9.23
2019-03-12T07:04:10.189Z,8.60
2019-03-12T07:06:56.782Z,8.30
2019-03-12T07:09:45.012Z,9.20
2019-03-12T07:12:22.665Z,9.33
2019-03-12T07:15:05.097Z,9.70
2019-03-12T07:18:00.796Z,8.23
2019-03-12T07:20:50.296Z,9.50
2019-03-12T07:23:35.615Z,8.50
2019-03-12T07:26:21.095Z,8.43
2019-03-12T07:29:06.121Z,8.50
2019-03-12T07:31:39.365Z,8.10
2019-03-12T07:34:36.758Z,8.50
2019-03-12T07:37:20.748Z,8.87
2019-03-12T07:40:00.308Z,6.90
2019-03-12T07:42:41.803Z,7.63
2019-03-12T07:45:14.360Z,7.03
2019-03-12T07:48:00.967Z,7.37
2019-03-12T07:50:37.502Z,6.27
2019-03-12T07:53:22.809Z,6.10
2019-03-12T07:56:04.552Z,5.60
2019-03-12T07:59:09.426Z,6.47
2019-03-12T08:01:56.021Z,5.70
2019-03-12T08:04:43.418Z,4.93
2019-03-12T08:07:41.430Z,5.20
2019-03-12T08:10:26.620Z,5.70
2019-03-12T14:15:49.123Z,1.63
2019-03-12T14:18:16.052Z,1.80
2019-03-12T14:20:44.807Z,1.73
2019-03-12T14:23:14.291Z,2.03
2019-03-12T14:25:41.364Z,1.10
2019-03-12T14:28:08.308Z,1.83
2019-03-12T14:30:35.278Z,1.47
2019-03-12T14:33:02.499Z,1.83
2019-03-12T14:35:29.480Z,1.90
2019-03-12T14:37:56.488Z,1.40
2019-03-12T14:40:23.548Z,1.80
2019-03-12T14:42:50.542Z,2.87
2019-03-12T14:45:24.152Z,2.23
2019-03-12T14:47:51.121Z,1.87
2019-03-12T14:50:18.186Z,1.70
2019-03-12T14:52:47.491Z,1.83
2019-03-12T14:55:14.434Z,1.43
2019-03-12T14:57:41.415Z,1.50
2019-03-12T15:00:18.113Z,1.73
2019-03-12T15:02:45.113Z,1.57
2019-03-12T15:05:12.053Z,1.80
2019-03-12T15:07:39.027Z,1.20
2019-03-12T15:10:07.167Z,2.10
2019-03-12T15:12:34.129Z,1.47
2019-03-12T15:15:01.094Z,1.17
2019-03-12T15:17:28.085Z,1.47
2019-03-12T15:19:55.051Z,1.47
2019-03-12T15:22:22.032Z,1.77
2019-03-12T15:24:48.954Z,1.80
2019-03-12T15:27:15.920Z,1.20
2019-03-12T15:29:42.866Z,3.33
2019-03-12T15:32:09.854Z,4.53
2019-03-12T15:34:36.814Z,1.90
2019-03-12T15:37:03.777Z,2.27
2019-03-12T15:39:30.724Z,1.97
2019-03-12T15:41:57.731Z,1.90
2019-03-12T15:44:24.682Z,2.37
2019-03-12T15:46:51.682Z,1.60
2019-03-12T15:49:18.671Z,1.50
2019-03-12T15:51:45.671Z,2.00
2019-03-12T15:54:12.600Z,1.80
2019-03-12T15:56:39.579Z,3.10
2019-03-12T15:59:06.567Z,1.40
2019-03-12T16:01:33.561Z,1.43
2019-03-12T16:04:00.533Z,1.90
2019-03-12T16:06:27.527Z,1.87
2019-03-12T16:08:54.477Z,1.80
2019-03-12T16:11:21.472Z,1.60
2019-03-12T16:13:48.525Z,2.77
2019-03-12T16:16:15.507Z,1.03
2019-03-12T16:18:42.825Z,1.80
2019-03-12T16:21:09.888Z,1.40
2019-03-12T16:23:36.929Z,1.30
2019-03-12T16:26:03.893Z,1.40
2019-03-12T16:28:30.883Z,1.50
2019-03-12T16:30:57.827Z,2.67
2019-03-12T16:33:24.787Z,2.77
2019-03-12T16:35:51.790Z,1.80
2019-03-12T16:38:18.858Z,1.90
2019-03-12T16:40:45.858Z,1.10
2019-03-12T16:43:12.992Z,1.40
2019-03-12T16:45:39.949Z,1.60
2019-03-12T16:48:06.912Z,1.43
2019-03-12T16:50:33.849Z,1.50
2019-03-12T16:53:00.808Z,1.43
2019-03-12T16:55:27.831Z,1.93
2019-03-12T16:57:55.063Z,1.73
2019-03-12T17:00:22.314Z,2.27
2019-03-12T17:02:49.404Z,2.07
2019-03-12T17:05:16.535Z,1.50
2019-03-12T17:07:43.622Z,1.53
2019-03-12T17:10:10.917Z,2.07
2019-03-12T17:12:38.053Z,1.30
2019-03-12T17:15:06.304Z,2.07
2019-03-12T17:17:33.311Z,1.60
2019-03-12T17:20:01.194Z,3.00
2019-03-12T17:22:28.178Z,1.80
2019-03-12T17:24:55.121Z,2.40
2019-03-12T17:27:22.139Z,1.50
2019-03-12T17:29:49.104Z,1.63
2019-03-12T17:32:16.393Z,1.40
2019-03-12T17:34:43.347Z,1.40
2019-03-12T17:37:10.302Z,1.80
2019-03-12T17:39:37.283Z,1.63
2019-03-12T17:42:04.228Z,1.50
2019-03-12T17:44:31.192Z,1.30
2019-03-12T17:46:58.123Z,1.50
2019-03-12T17:49:25.102Z,1.60
2019-03-12T17:51:52.038Z,1.73
2019-03-12T17:54:19.364Z,1.37
2019-03-12T17:56:46.363Z,1.70
2019-03-12T17:59:13.351Z,1.00
2019-03-12T18:01:40.279Z,1.43
2019-03-12T18:04:07.241Z,1.30
2019-03-12T18:06:35.218Z,1.73
2019-03-12T18:09:04.232Z,1.20
2019-03-12T18:11:31.187Z,1.43
2019-03-12T18:13:58.155Z,1.10
2019-03-12T18:16:25.127Z,1.70
2019-03-12T18:18:52.105Z,1.00
2019-03-12T18:21:19.175Z,1.00
2019-03-12T18:23:46.151Z,1.40
2019-03-12T18:26:13.106Z,1.17
2019-03-12T18:28:40.118Z,1.00
2019-03-12T18:31:07.123Z,1.30
2019-03-12T18:33:34.169Z,1.67
2019-03-12T18:36:01.208Z,1.50
2019-03-12T18:38:28.210Z,1.10
2019-03-12T18:40:55.290Z,1.10
2019-03-12T18:43:23.076Z,1.00
2019-03-12T18:45:50.179Z,1.07
2019-03-12T18:48:17.187Z,1.23
2019-03-12T18:50:44.203Z,0.97
2019-03-12T18:53:11.155Z,1.20
2019-03-12T18:55:43.367Z,1.33
2019-03-12T18:58:10.456Z,1.07
2019-03-12T19:00:37.441Z,1.10
2019-03-12T19:03:04.432Z,1.83
2019-03-12T19:05:31.417Z,1.07
2019-03-12T19:07:58.662Z,1.53
2019-03-12T19:10:26.091Z,1.33
2019-03-12T19:12:53.263Z,0.97
2019-03-12T19:15:20.724Z,0.97
2019-03-12T19:17:48.178Z,1.00
2019-03-12T19:20:15.179Z,1.60
2019-03-12T19:22:42.159Z,1.53
2019-03-12T19:25:09.296Z,1.00
2019-03-12T19:27:36.449Z,1.80
2019-03-12T19:30:04.618Z,1.10
2019-03-12T19:32:43.815Z,1.90
2019-03-12T19:35:12.164Z,1.57
2019-03-12T19:37:39.135Z,1.33
2019-03-12T19:40:09.499Z,1.00
2019-03-12T19:42:36.462Z,2.00
2019-03-12T19:45:03.845Z,1.07
2019-03-12T19:47:30.813Z,1.07
2019-03-12T19:49:57.827Z,1.20
2019-03-12T19:52:24.911Z,1.20
2019-03-12T19:54:51.867Z,1.80
2019-03-12T19:57:18.813Z,0.97
2019-03-12T19:59:45.893Z,0.93
2019-03-12T20:02:16.346Z,1.40
2019-03-12T20:04:47.372Z,1.60
2019-03-12T20:07:12.519Z,1.57
2019-03-12T20:10:27.158Z,1.37
2019-03-12T20:13:31.288Z,1.43
2019-03-12T20:16:46.189Z,1.20
2019-03-12T20:19:54.902Z,0.80
2019-03-12T20:22:44.141Z,0.93
2019-03-12T20:25:53.442Z,1.20
2019-03-12T20:29:04.111Z,0.90
2019-03-12T20:32:16.469Z,0.97
2019-03-12T20:35:36.726Z,1.23
2019-03-12T20:38:44.799Z,1.63
2019-03-12T20:41:58.405Z,1.17
2019-03-12T20:45:02.416Z,1.17
2019-03-12T20:48:18.928Z,1.10
2019-03-12T20:51:22.539Z,1.00
2019-03-12T20:54:40.679Z,1.10
2019-03-12T20:57:57.676Z,1.40
2019-03-12T21:01:12.520Z,0.90
2019-03-12T21:04:23.169Z,1.20
2019-03-12T21:07:25.095Z,1.30
2019-03-12T21:10:38.894Z,0.97
2019-03-12T21:13:39.064Z,1.13
2019-03-12T21:16:40.254Z,1.17
2019-03-12T21:19:44.921Z,1.03
2019-03-12T21:23:12.025Z,1.23
2019-03-12T21:26:24.073Z,0.70
2019-03-12T21:29:32.047Z,1.43
2019-03-12T21:31:59.261Z,1.03
2019-03-12T21:34:26.231Z,1.20
2019-03-12T21:36:53.246Z,1.07
2019-03-12T21:39:20.258Z,1.20
2019-03-12T21:41:47.395Z,1.20
2019-03-12T21:44:14.556Z,1.33
2019-03-12T21:46:41.682Z,1.70
2019-03-12T21:49:08.679Z,1.20
2019-03-12T21:51:35.756Z,1.30
2019-03-12T21:54:03.007Z,1.50
2019-03-12T21:56:30.101Z,1.20
2019-03-12T21:58:57.014Z,1.60
2019-03-12T22:01:24.264Z,0.80
2019-03-12T22:03:51.252Z,1.50
2019-03-12T22:06:18.316Z,1.50
2019-03-12T22:08:45.346Z,1.60
2019-03-12T22:11:12.396Z,1.17
2019-03-12T22:13:39.356Z,1.30
2019-03-12T22:16:06.394Z,1.10
2019-03-12T22:18:33.402Z,1.17
2019-03-12T22:21:00.437Z,1.13
2019-03-12T22:23:32.157Z,1.40
2019-03-12T22:25:59.168Z,1.00
2019-03-12T22:28:26.128Z,1.10
2019-03-12T22:30:53.127Z,0.83
2019-03-12T22:33:20.150Z,0.60
2019-03-12T22:35:47.148Z,0.63
2019-03-12T22:38:14.150Z,0.77
2019-03-12T22:40:41.117Z,0.67
2019-03-12T22:43:08.105Z,0.73
2019-03-12T22:45:35.272Z,0.60
2019-03-12T22:48:02.242Z,0.67
2019-03-12T22:50:29.247Z,0.50
2019-03-12T22:52:56.337Z,0.77
2019-03-12T22:55:23.336Z,0.60
2019-03-12T22:57:50.310Z,0.73
2019-03-12T23:00:17.272Z,0.80
2019-03-12T23:02:44.264Z,1.00
2019-03-12T23:05:11.456Z,0.87
2019-03-12T23:07:38.434Z,0.70
2019-03-12T23:10:05.618Z,0.63
2019-03-12T23:12:32.602Z,0.63
2019-03-12T23:14:59.528Z,0.90
2019-03-12T23:17:26.495Z,0.80
2019-03-12T23:19:53.564Z,1.17
2019-03-12T23:22:20.548Z,1.10
2019-03-12T23:24:47.518Z,0.90
2019-03-12T23:27:14.545Z,1.03
2019-03-12T23:29:41.728Z,1.90
2019-03-12T23:32:08.686Z,1.60
2019-03-12T23:34:35.808Z,1.90
2019-03-12T23:37:02.877Z,1.67
2019-03-12T23:39:29.853Z,2.07
2019-03-12T23:41:56.835Z,1.80
2019-03-12T23:44:23.783Z,2.33
2019-03-12T23:46:50.757Z,2.27
2019-03-12T23:49:18.113Z,2.40
2019-03-12T23:51:45.147Z,2.40
2019-03-12T23:54:12.213Z,3.40
2019-03-12T23:56:39.293Z,2.93
2019-03-12T23:59:06.292Z,2.73
